sensor_id;sensor_type;location;lat;lon;timestamp;temperature;humidity
16958;DHT22;8595;52.542;11.974;2022-09-09T00:01:23;15.10;99.90
16958;DHT22;8595;52.542;11.974;2022-09-09T00:04:00;15.10;99.90
16958;DHT22;8595;52.542;11.974;2022-09-09T00:06:31;15.10;99.90
16958;DHT22;8595;52.542;11.974;2022-09-09T00:09:04;15.20;99.90
16958;DHT22;8595;52.542;11.974;2022-09-09T00:11:39;15.20;99.90
16958;DHT22;8595;52.542;11.974;2022-09-09T00:14:14;15.20;99.90
16958;DHT22;8595;52.542;11.974;2022-09-09T00:16:49;15.20;99.90
16958;DHT22;8595;52.542;11.974;2022-09-09T00:19:23;15.10;99.90
16958;DHT22;8595;52.542;11.974;2022-09-09T00:21:58;15.10;99.90
16958;DHT22;8595;52.542;11.974;2022-09-09T00:24:34;15.00;99.90
16958;DHT22;8595;52.542;11.974;2022-09-09T00:27:08;15.10;99.90
16958;DHT22;8595;52.542;11.974;2022-09-09T00:29:44;15.10;99.90
16958;DHT22;8595;52.542;11.974;2022-09-09T00:32:14;15.10;99.90
16958;DHT22;8595;52.542;11.974;2022-09-09T00:34:47;15.00;99.90
16958;DHT22;8595;52.542;11.974;2022-09-09T00:37:15;15.10;99.90
16958;DHT22;8595;52.542;11.974;2022-09-09T00:39:43;15.00;99.90
16958;DHT22;8595;52.542;11.974;2022-09-09T00:42:14;15.00;99.90
16958;DHT22;8595;52.542;11.974;2022-09-09T00:44:51;15.00;99.90
16958;DHT22;8595;52.542;11.974;2022-09-09T00:47:43;15.00;99.90
16958;DHT22;8595;52.542;11.974;2022-09-09T00:50:35;14.90;99.90
16958;DHT22;8595;52.542;11.974;2022-09-09T00:56:03;15.00;99.90
16958;DHT22;8595;52.542;11.974;2022-09-09T00:58:31;15.00;99.90
16958;DHT22;8595;52.542;11.974;2022-09-09T01:01:04;15.00;99.90
16958;DHT22;8595;52.542;11.974;2022-09-09T01:03:35;15.00;99.90
16958;DHT22;8595;52.542;11.974;2022-09-09T01:06:13;14.90;99.90
16958;DHT22;8595;52.542;11.974;2022-09-09T01:09:04;14.90;99.90
16958;DHT22;8595;52.542;11.974;2022-09-09T01:11:37;14.90;99.90
16958;DHT22;8595;52.542;11.974;2022-09-09T01:14:14;14.90;99.90
16958;DHT22;8595;52.542;11.974;2022-09-09T01:16:45;14.90;99.90
16958;DHT22;8595;52.542;11.974;2022-09-09T01:19:20;14.90;99.90
16958;DHT22;8595;52.542;11.974;2022-09-09T01:21:56;15.00;99.90
16958;DHT22;8595;52.542;11.974;2022-09-09T01:24:35;14.90;99.90
16958;DHT22;8595;52.542;11.974;2022-09-09T01:27:06;14.90;99.90
16958;DHT22;8595;52.542;11.974;2022-09-09T01:29:36;14.90;99.90
16958;DHT22;8595;52.542;11.974;2022-09-09T01:32:37;14.90;99.90
16958;DHT22;8595;52.542;11.974;2022-09-09T01:35:08;14.80;99.90
16958;DHT22;8595;52.542;11.974;2022-09-09T01:37:36;14.80;99.90
16958;DHT22;8595;52.542;11.974;2022-09-09T01:40:04;14.80;99.90
16958;DHT22;8595;52.542;11.974;2022-09-09T01:42:31;14.80;99.90
16958;DHT22;8595;52.542;11.974;2022-09-09T01:44:58;14.80;99.90
16958;DHT22;8595;52.542;11.974;2022-09-09T01:47:25;14.80;99.90
16958;DHT22;8595;52.542;11.974;2022-09-09T01:49:52;14.80;99.90
16958;DHT22;8595;52.542;11.974;2022-09-09T01:52:20;14.80;99.90
16958;DHT22;8595;52.542;11.974;2022-09-09T01:54:47;14.70;99.90
16958;DHT22;8595;52.542;11.974;2022-09-09T01:57:18;14.70;99.90
16958;DHT22;8595;52.542;11.974;2022-09-09T01:59:53;14.70;99.90
16958;DHT22;8595;52.542;11.974;2022-09-09T02:02:27;14.70;99.90
16958;DHT22;8595;52.542;11.974;2022-09-09T02:05:04;14.70;99.90
16958;DHT22;8595;52.542;11.974;2022-09-09T02:07:38;14.70;99.90
16958;DHT22;8595;52.542;11.974;2022-09-09T02:10:11;14.70;99.90
16958;DHT22;8595;52.542;11.974;2022-09-09T02:12:42;14.70;99.90
16958;DHT22;8595;52.542;11.974;2022-09-09T02:15:16;14.70;99.90
16958;DHT22;8595;52.542;11.974;2022-09-09T02:17:46;14.80;99.90
16958;DHT22;8595;52.542;11.974;2022-09-09T02:20:16;14.70;99.90
16958;DHT22;8595;52.542;11.974;2022-09-09T02:22:49;14.60;99.90
16958;DHT22;8595;52.542;11.974;2022-09-09T02:25:25;14.50;99.90
16958;DHT22;8595;52.542;11.974;2022-09-09T02:27:53;14.50;99.90
16958;DHT22;8595;52.542;11.974;2022-09-09T02:30:20;14.40;99.90
16958;DHT22;8595;52.542;11.974;2022-09-09T02:32:48;14.40;99.90
16958;DHT22;8595;52.542;11.974;2022-09-09T02:35:20;14.40;99.90
16958;DHT22;8595;52.542;11.974;2022-09-09T02:37:51;14.40;99.90
16958;DHT22;8595;52.542;11.974;2022-09-09T02:40:19;14.30;99.90
16958;DHT22;8595;52.542;11.974;2022-09-09T02:42:48;14.30;99.90
16958;DHT22;8595;52.542;11.974;2022-09-09T02:45:17;14.30;99.90
16958;DHT22;8595;52.542;11.974;2022-09-09T02:47:50;14.30;99.90
16958;DHT22;8595;52.542;11.974;2022-09-09T02:50:21;14.30;99.90
16958;DHT22;8595;52.542;11.974;2022-09-09T02:53:00;14.30;99.90
16958;DHT22;8595;52.542;11.974;2022-09-09T02:55:38;14.30;99.90
16958;DHT22;8595;52.542;11.974;2022-09-09T02:58:07;14.30;99.90
16958;DHT22;8595;52.542;11.974;2022-09-09T03:00:35;14.30;99.90
16958;DHT22;8595;52.542;11.974;2022-09-09T03:03:03;14.30;99.90
16958;DHT22;8595;52.542;11.974;2022-09-09T03:05:30;14.30;99.90
16958;DHT22;8595;52.542;11.974;2022-09-09T03:07:58;14.30;99.90
16958;DHT22;8595;52.542;11.974;2022-09-09T03:10:25;14.20;99.90
16958;DHT22;8595;52.542;11.974;2022-09-09T03:12:52;14.20;99.90
16958;DHT22;8595;52.542;11.974;2022-09-09T03:15:19;14.20;99.90
16958;DHT22;8595;52.542;11.974;2022-09-09T03:17:46;14.20;99.90
16958;DHT22;8595;52.542;11.974;2022-09-09T03:20:13;14.20;99.90
16958;DHT22;8595;52.542;11.974;2022-09-09T03:22:40;14.20;99.90
16958;DHT22;8595;52.542;11.974;2022-09-09T03:25:09;14.30;99.90
16958;DHT22;8595;52.542;11.974;2022-09-09T03:27:36;14.20;99.90
16958;DHT22;8595;52.542;11.974;2022-09-09T03:30:03;14.30;99.90
16958;DHT22;8595;52.542;11.974;2022-09-09T03:32:30;14.30;99.90
16958;DHT22;8595;52.542;11.974;2022-09-09T03:34:57;14.30;99.90
16958;DHT22;8595;52.542;11.974;2022-09-09T03:37:24;14.20;99.90
16958;DHT22;8595;52.542;11.974;2022-09-09T03:39:51;14.10;99.90
16958;DHT22;8595;52.542;11.974;2022-09-09T03:42:19;14.10;99.90
16958;DHT22;8595;52.542;11.974;2022-09-09T03:44:46;14.10;99.90
16958;DHT22;8595;52.542;11.974;2022-09-09T03:47:16;14.10;99.90
16958;DHT22;8595;52.542;11.974;2022-09-09T03:49:43;14.10;99.90
16958;DHT22;8595;52.542;11.974;2022-09-09T03:52:10;14.10;99.90
16958;DHT22;8595;52.542;11.974;2022-09-09T03:54:36;14.10;99.90
16958;DHT22;8595;52.542;11.974;2022-09-09T03:57:03;14.10;99.90
16958;DHT22;8595;52.542;11.974;2022-09-09T03:59:32;14.10;99.90
16958;DHT22;8595;52.542;11.974;2022-09-09T04:01:58;14.10;99.90
16958;DHT22;8595;52.542;11.974;2022-09-09T04:04:25;14.10;99.90
16958;DHT22;8595;52.542;11.974;2022-09-09T04:06:52;14.00;99.90
16958;DHT22;8595;52.542;11.974;2022-09-09T04:09:19;14.00;99.90
16958;DHT22;8595;52.542;11.974;2022-09-09T04:11:45;13.90;99.90
16958;DHT22;8595;52.542;11.974;2022-09-09T04:14:12;13.90;99.90
16958;DHT22;8595;52.542;11.974;2022-09-09T04:16:40;13.90;99.90
16958;DHT22;8595;52.542;11.974;2022-09-09T04:19:10;13.90;99.90
16958;DHT22;8595;52.542;11.974;2022-09-09T04:21:37;13.90;99.90
16958;DHT22;8595;52.542;11.974;2022-09-09T04:24:05;13.80;99.90
16958;DHT22;8595;52.542;11.974;2022-09-09T04:26:32;13.80;99.90
16958;DHT22;8595;52.542;11.974;2022-09-09T04:28:58;13.80;99.90
16958;DHT22;8595;52.542;11.974;2022-09-09T04:31:25;13.70;99.90
16958;DHT22;8595;52.542;11.974;2022-09-09T04:33:53;13.70;99.90
16958;DHT22;8595;52.542;11.974;2022-09-09T04:36:19;13.80;99.90
16958;DHT22;8595;52.542;11.974;2022-09-09T04:38:46;13.80;99.90
16958;DHT22;8595;52.542;11.974;2022-09-09T04:41:15;13.90;99.90
16958;DHT22;8595;52.542;11.974;2022-09-09T04:43:42;13.90;99.90
16958;DHT22;8595;52.542;11.974;2022-09-09T04:46:09;13.80;99.90
16958;DHT22;8595;52.542;11.974;2022-09-09T04:48:36;13.80;99.90
16958;DHT22;8595;52.542;11.974;2022-09-09T04:51:06;13.80;99.90
16958;DHT22;8595;52.542;11.974;2022-09-09T04:53:34;13.80;99.90
16958;DHT22;8595;52.542;11.974;2022-09-09T04:56:03;13.80;99.90
16958;DHT22;8595;52.542;11.974;2022-09-09T04:58:30;13.80;99.90
16958;DHT22;8595;52.542;11.974;2022-09-09T05:01:03;13.80;99.90
16958;DHT22;8595;52.542;11.974;2022-09-09T05:03:30;13.80;99.90
16958;DHT22;8595;52.542;11.974;2022-09-09T05:06:04;13.80;99.90
16958;DHT22;8595;52.542;11.974;2022-09-09T05:08:34;13.70;99.90
16958;DHT22;8595;52.542;11.974;2022-09-09T05:11:01;13.80;99.90
16958;DHT22;8595;52.542;11.974;2022-09-09T05:13:28;13.80;99.90
16958;DHT22;8595;52.542;11.974;2022-09-09T05:15:57;13.90;99.90
16958;DHT22;8595;52.542;11.974;2022-09-09T05:18:24;13.80;99.90
16958;DHT22;8595;52.542;11.974;2022-09-09T05:20:50;13.90;99.90
16958;DHT22;8595;52.542;11.974;2022-09-09T05:23:19;14.00;99.90
16958;DHT22;8595;52.542;11.974;2022-09-09T05:25:55;14.00;99.90
16958;DHT22;8595;52.542;11.974;2022-09-09T05:28:23;14.10;99.90
16958;DHT22;8595;52.542;11.974;2022-09-09T05:30:55;14.10;99.90
16958;DHT22;8595;52.542;11.974;2022-09-09T05:33:23;14.20;99.90
16958;DHT22;8595;52.542;11.974;2022-09-09T05:35:55;14.30;99.90
16958;DHT22;8595;52.542;11.974;2022-09-09T05:38:23;14.40;99.90
16958;DHT22;8595;52.542;11.974;2022-09-09T05:40:51;14.50;99.90
16958;DHT22;8595;52.542;11.974;2022-09-09T05:43:18;14.70;99.90
16958;DHT22;8595;52.542;11.974;2022-09-09T05:45:45;14.70;99.90
16958;DHT22;8595;52.542;11.974;2022-09-09T05:48:12;14.70;99.90
16958;DHT22;8595;52.542;11.974;2022-09-09T05:50:40;14.80;99.90
16958;DHT22;8595;52.542;11.974;2022-09-09T05:53:08;14.90;99.90
16958;DHT22;8595;52.542;11.974;2022-09-09T05:55:36;15.00;99.90
16958;DHT22;8595;52.542;11.974;2022-09-09T05:58:03;15.00;99.90
16958;DHT22;8595;52.542;11.974;2022-09-09T06:00:29;15.10;99.90
16958;DHT22;8595;52.542;11.974;2022-09-09T06:02:57;15.20;99.90
16958;DHT22;8595;52.542;11.974;2022-09-09T06:05:24;15.20;99.90
16958;DHT22;8595;52.542;11.974;2022-09-09T06:07:53;15.30;99.90
16958;DHT22;8595;52.542;11.974;2022-09-09T06:10:19;15.30;99.90
16958;DHT22;8595;52.542;11.974;2022-09-09T06:12:47;15.30;99.90
16958;DHT22;8595;52.542;11.974;2022-09-09T06:15:14;15.30;99.90
16958;DHT22;8595;52.542;11.974;2022-09-09T06:17:41;15.40;99.90
16958;DHT22;8595;52.542;11.974;2022-09-09T06:20:08;15.40;99.90
16958;DHT22;8595;52.542;11.974;2022-09-09T06:22:35;15.40;99.90
16958;DHT22;8595;52.542;11.974;2022-09-09T06:25:02;15.40;99.90
16958;DHT22;8595;52.542;11.974;2022-09-09T06:27:29;15.40;99.90
16958;DHT22;8595;52.542;11.974;2022-09-09T06:29:57;15.50;99.90
16958;DHT22;8595;52.542;11.974;2022-09-09T06:32:24;15.50;99.90
16958;DHT22;8595;52.542;11.974;2022-09-09T06:34:52;15.60;99.90
16958;DHT22;8595;52.542;11.974;2022-09-09T06:37:19;15.70;99.90
16958;DHT22;8595;52.542;11.974;2022-09-09T06:39:46;15.90;99.90
16958;DHT22;8595;52.542;11.974;2022-09-09T06:42:13;15.90;99.90
16958;DHT22;8595;52.542;11.974;2022-09-09T06:44:41;16.00;99.90
16958;DHT22;8595;52.542;11.974;2022-09-09T06:47:09;16.00;99.90
16958;DHT22;8595;52.542;11.974;2022-09-09T06:49:36;16.10;99.90
16958;DHT22;8595;52.542;11.974;2022-09-09T06:52:03;16.20;99.90
16958;DHT22;8595;52.542;11.974;2022-09-09T06:54:29;16.40;99.90
16958;DHT22;8595;52.542;11.974;2022-09-09T06:56:56;16.50;99.90
16958;DHT22;8595;52.542;11.974;2022-09-09T06:59:23;16.50;99.90
16958;DHT22;8595;52.542;11.974;2022-09-09T07:01:51;16.50;99.90
16958;DHT22;8595;52.542;11.974;2022-09-09T07:04:21;16.60;99.90
16958;DHT22;8595;52.542;11.974;2022-09-09T07:06:47;16.70;99.90
16958;DHT22;8595;52.542;11.974;2022-09-09T07:09:15;16.90;99.90
16958;DHT22;8595;52.542;11.974;2022-09-09T07:11:43;16.90;99.90
16958;DHT22;8595;52.542;11.974;2022-09-09T07:14:11;17.00;99.90
16958;DHT22;8595;52.542;11.974;2022-09-09T07:16:39;17.00;99.90
16958;DHT22;8595;52.542;11.974;2022-09-09T07:19:07;17.00;99.90
16958;DHT22;8595;52.542;11.974;2022-09-09T07:21:35;17.10;99.90
16958;DHT22;8595;52.542;11.974;2022-09-09T07:24:02;17.10;99.90
16958;DHT22;8595;52.542;11.974;2022-09-09T07:26:33;17.20;99.90
16958;DHT22;8595;52.542;11.974;2022-09-09T07:29:00;17.20;99.90
16958;DHT22;8595;52.542;11.974;2022-09-09T07:31:28;17.30;99.90
16958;DHT22;8595;52.542;11.974;2022-09-09T07:33:56;17.30;99.90
16958;DHT22;8595;52.542;11.974;2022-09-09T07:36:24;17.40;99.90
16958;DHT22;8595;52.542;11.974;2022-09-09T07:38:54;17.50;99.90
16958;DHT22;8595;52.542;11.974;2022-09-09T07:41:23;17.50;99.90
16958;DHT22;8595;52.542;11.974;2022-09-09T07:43:50;17.50;99.90
16958;DHT22;8595;52.542;11.974;2022-09-09T07:46:20;17.50;99.90
16958;DHT22;8595;52.542;11.974;2022-09-09T07:48:48;17.60;99.90
16958;DHT22;8595;52.542;11.974;2022-09-09T07:51:17;17.70;99.90
16958;DHT22;8595;52.542;11.974;2022-09-09T07:53:45;17.80;99.90
16958;DHT22;8595;52.542;11.974;2022-09-09T07:56:15;17.90;99.90
16958;DHT22;8595;52.542;11.974;2022-09-09T07:58:45;18.50;99.90
16958;DHT22;8595;52.542;11.974;2022-09-09T08:01:14;19.40;99.90
16958;DHT22;8595;52.542;11.974;2022-09-09T08:03:42;20.20;99.90
16958;DHT22;8595;52.542;11.974;2022-09-09T08:06:10;20.00;99.90
16958;DHT22;8595;52.542;11.974;2022-09-09T08:08:38;19.80;99.90
16958;DHT22;8595;52.542;11.974;2022-09-09T08:11:15;19.60;99.90
16958;DHT22;8595;52.542;11.974;2022-09-09T08:13:44;19.40;99.90
16958;DHT22;8595;52.542;11.974;2022-09-09T08:16:13;19.20;99.90
16958;DHT22;8595;52.542;11.974;2022-09-09T08:18:41;19.30;99.90
16958;DHT22;8595;52.542;11.974;2022-09-09T08:21:09;19.50;99.90
16958;DHT22;8595;52.542;11.974;2022-09-09T08:23:38;19.80;99.90
16958;DHT22;8595;52.542;11.974;2022-09-09T08:26:09;19.90;99.90
16958;DHT22;8595;52.542;11.974;2022-09-09T08:28:36;20.60;99.90
16958;DHT22;8595;52.542;11.974;2022-09-09T08:31:12;20.80;99.90
16958;DHT22;8595;52.542;11.974;2022-09-09T08:33:39;20.40;99.90
16958;DHT22;8595;52.542;11.974;2022-09-09T08:36:08;20.80;99.90
16958;DHT22;8595;52.542;11.974;2022-09-09T08:38:36;21.40;99.90
16958;DHT22;8595;52.542;11.974;2022-09-09T08:41:24;21.40;99.90
16958;DHT22;8595;52.542;11.974;2022-09-09T08:44:01;21.50;99.90
16958;DHT22;8595;52.542;11.974;2022-09-09T08:46:42;21.20;99.90
16958;DHT22;8595;52.542;11.974;2022-09-09T08:49:20;21.40;99.90
16958;DHT22;8595;52.542;11.974;2022-09-09T08:51:48;21.60;99.90
16958;DHT22;8595;52.542;11.974;2022-09-09T08:54:16;21.90;99.90
16958;DHT22;8595;52.542;11.974;2022-09-09T08:56:43;21.60;99.90
16958;DHT22;8595;52.542;11.974;2022-09-09T08:59:13;21.60;99.90
16958;DHT22;8595;52.542;11.974;2022-09-09T09:01:49;21.50;99.90
16958;DHT22;8595;52.542;11.974;2022-09-09T09:04:37;21.50;99.90
16958;DHT22;8595;52.542;11.974;2022-09-09T09:07:14;21.50;99.90
16958;DHT22;8595;52.542;11.974;2022-09-09T09:09:51;21.40;99.90
16958;DHT22;8595;52.542;11.974;2022-09-09T09:12:21;21.10;99.90
16958;DHT22;8595;52.542;11.974;2022-09-09T09:14:49;20.90;99.90
16958;DHT22;8595;52.542;11.974;2022-09-09T09:17:19;20.80;99.90
16958;DHT22;8595;52.542;11.974;2022-09-09T09:19:47;20.70;99.90
16958;DHT22;8595;52.542;11.974;2022-09-09T09:22:18;20.70;99.90
16958;DHT22;8595;52.542;11.974;2022-09-09T09:24:51;20.80;99.90
16958;DHT22;8595;52.542;11.974;2022-09-09T09:27:25;21.00;99.90
16958;DHT22;8595;52.542;11.974;2022-09-09T09:29:55;21.50;99.90
16958;DHT22;8595;52.542;11.974;2022-09-09T09:32:27;21.90;99.90
16958;DHT22;8595;52.542;11.974;2022-09-09T09:34:56;21.90;99.90
16958;DHT22;8595;52.542;11.974;2022-09-09T09:37:27;21.70;99.90
16958;DHT22;8595;52.542;11.974;2022-09-09T09:39:56;22.10;99.90
16958;DHT22;8595;52.542;11.974;2022-09-09T09:42:22;22.40;99.90
16958;DHT22;8595;52.542;11.974;2022-09-09T09:44:50;22.80;99.90
16958;DHT22;8595;52.542;11.974;2022-09-09T09:47:18;22.80;99.90
16958;DHT22;8595;52.542;11.974;2022-09-09T09:49:53;22.50;99.90
16958;DHT22;8595;52.542;11.974;2022-09-09T09:52:22;22.30;99.90
16958;DHT22;8595;52.542;11.974;2022-09-09T09:54:50;22.20;99.90
16958;DHT22;8595;52.542;11.974;2022-09-09T09:57:18;22.10;99.90
16958;DHT22;8595;52.542;11.974;2022-09-09T10:00:00;22.10;99.90
16958;DHT22;8595;52.542;11.974;2022-09-09T10:02:37;22.30;99.90
16958;DHT22;8595;52.542;11.974;2022-09-09T10:05:12;23.30;99.90
16958;DHT22;8595;52.542;11.974;2022-09-09T10:07:38;24.30;99.90
16958;DHT22;8595;52.542;11.974;2022-09-09T10:10:09;25.20;99.90
16958;DHT22;8595;52.542;11.974;2022-09-09T10:12:47;25.90;99.90
16958;DHT22;8595;52.542;11.974;2022-09-09T10:15:30;26.40;99.90
16958;DHT22;8595;52.542;11.974;2022-09-09T10:18:08;26.50;99.90
16958;DHT22;8595;52.542;11.974;2022-09-09T10:20:45;26.80;99.90
16958;DHT22;8595;52.542;11.974;2022-09-09T10:23:25;27.20;99.90
16958;DHT22;8595;52.542;11.974;2022-09-09T10:26:06;27.50;99.90
16958;DHT22;8595;52.542;11.974;2022-09-09T10:28:48;27.70;99.90
16958;DHT22;8595;52.542;11.974;2022-09-09T10:31:22;28.00;99.90
16958;DHT22;8595;52.542;11.974;2022-09-09T10:33:57;28.10;99.90
16958;DHT22;8595;52.542;11.974;2022-09-09T10:36:28;27.50;99.90
16958;DHT22;8595;52.542;11.974;2022-09-09T10:38:59;26.90;99.90
16958;DHT22;8595;52.542;11.974;2022-09-09T10:41:42;25.80;99.90
16958;DHT22;8595;52.542;11.974;2022-09-09T10:44:30;25.10;99.90
16958;DHT22;8595;52.542;11.974;2022-09-09T10:47:21;24.60;99.90
16958;DHT22;8595;52.542;11.974;2022-09-09T10:50:07;24.10;99.90
16958;DHT22;8595;52.542;11.974;2022-09-09T10:52:42;23.60;99.90
16958;DHT22;8595;52.542;11.974;2022-09-09T10:55:13;23.30;99.90
16958;DHT22;8595;52.542;11.974;2022-09-09T10:57:45;23.60;99.90
16958;DHT22;8595;52.542;11.974;2022-09-09T11:00:16;23.40;99.90
16958;DHT22;8595;52.542;11.974;2022-09-09T11:02:43;23.40;99.90
16958;DHT22;8595;52.542;11.974;2022-09-09T11:05:16;23.30;99.90
16958;DHT22;8595;52.542;11.974;2022-09-09T11:07:48;23.50;99.90
16958;DHT22;8595;52.542;11.974;2022-09-09T11:10:22;23.40;99.90
16958;DHT22;8595;52.542;11.974;2022-09-09T11:12:53;23.40;99.90
16958;DHT22;8595;52.542;11.974;2022-09-09T11:15:29;23.50;99.90
16958;DHT22;8595;52.542;11.974;2022-09-09T11:18:01;23.60;99.90
16958;DHT22;8595;52.542;11.974;2022-09-09T11:20:28;23.50;99.90
16958;DHT22;8595;52.542;11.974;2022-09-09T11:22:59;24.00;99.90
16958;DHT22;8595;52.542;11.974;2022-09-09T11:25:31;24.50;99.90
16958;DHT22;8595;52.542;11.974;2022-09-09T11:28:32;24.60;99.90
16958;DHT22;8595;52.542;11.974;2022-09-09T11:31:16;24.50;99.90
16958;DHT22;8595;52.542;11.974;2022-09-09T11:34:25;24.30;99.90
16958;DHT22;8595;52.542;11.974;2022-09-09T11:37:08;24.20;99.90
16958;DHT22;8595;52.542;11.974;2022-09-09T11:39:49;24.70;99.90
16958;DHT22;8595;52.542;11.974;2022-09-09T11:42:20;25.00;99.90
16958;DHT22;8595;52.542;11.974;2022-09-09T11:44:47;25.10;99.90
16958;DHT22;8595;52.542;11.974;2022-09-09T11:47:21;25.50;99.90
16958;DHT22;8595;52.542;11.974;2022-09-09T11:49:50;26.30;99.90
16958;DHT22;8595;52.542;11.974;2022-09-09T11:52:22;26.30;99.90
16958;DHT22;8595;52.542;11.974;2022-09-09T11:54:54;26.00;99.90
16958;DHT22;8595;52.542;11.974;2022-09-09T11:57:26;25.50;99.90
16958;DHT22;8595;52.542;11.974;2022-09-09T11:59:53;24.90;99.90
16958;DHT22;8595;52.542;11.974;2022-09-09T12:02:23;24.70;99.90
16958;DHT22;8595;52.542;11.974;2022-09-09T12:04:57;24.70;99.90
16958;DHT22;8595;52.542;11.974;2022-09-09T12:07:32;25.20;99.90
16958;DHT22;8595;52.542;11.974;2022-09-09T12:10:05;26.40;99.90
16958;DHT22;8595;52.542;11.974;2022-09-09T12:12:45;27.00;99.90
16958;DHT22;8595;52.542;11.974;2022-09-09T12:15:24;27.30;99.90
16958;DHT22;8595;52.542;11.974;2022-09-09T12:17:55;26.80;99.90
16958;DHT22;8595;52.542;11.974;2022-09-09T12:20:26;25.90;99.90
16958;DHT22;8595;52.542;11.974;2022-09-09T12:23:16;25.90;99.90
16958;DHT22;8595;52.542;11.974;2022-09-09T12:29:02;26.90;99.90
16958;DHT22;8595;52.542;11.974;2022-09-09T12:31:35;27.10;99.90
16958;DHT22;8595;52.542;11.974;2022-09-09T12:34:10;26.70;99.90
16958;DHT22;8595;52.542;11.974;2022-09-09T12:36:38;26.60;99.90
16958;DHT22;8595;52.542;11.974;2022-09-09T12:39:14;26.40;99.90
16958;DHT22;8595;52.542;11.974;2022-09-09T12:41:51;26.30;99.90
16958;DHT22;8595;52.542;11.974;2022-09-09T12:44:23;26.30;99.90
16958;DHT22;8595;52.542;11.974;2022-09-09T12:46:51;26.00;99.90
16958;DHT22;8595;52.542;11.974;2022-09-09T12:49:29;25.80;99.90
16958;DHT22;8595;52.542;11.974;2022-09-09T12:52:02;25.50;99.90
16958;DHT22;8595;52.542;11.974;2022-09-09T12:54:30;25.30;99.90
16958;DHT22;8595;52.542;11.974;2022-09-09T12:56:57;25.00;99.90
16958;DHT22;8595;52.542;11.974;2022-09-09T12:59:27;24.90;99.90
16958;DHT22;8595;52.542;11.974;2022-09-09T13:02:01;25.20;99.90
16958;DHT22;8595;52.542;11.974;2022-09-09T13:04:27;25.40;99.90
16958;DHT22;8595;52.542;11.974;2022-09-09T13:07:05;25.60;99.90
16958;DHT22;8595;52.542;11.974;2022-09-09T13:09:35;25.30;99.90
16958;DHT22;8595;52.542;11.974;2022-09-09T13:12:04;25.10;99.90
16958;DHT22;8595;52.542;11.974;2022-09-09T13:14:35;24.80;99.90
16958;DHT22;8595;52.542;11.974;2022-09-09T13:17:05;24.70;99.90
16958;DHT22;8595;52.542;11.974;2022-09-09T13:19:36;24.80;99.90
16958;DHT22;8595;52.542;11.974;2022-09-09T13:22:12;24.70;99.90
16958;DHT22;8595;52.542;11.974;2022-09-09T13:24:39;24.40;99.90
16958;DHT22;8595;52.542;11.974;2022-09-09T13:27:24;24.00;99.90
16958;DHT22;8595;52.542;11.974;2022-09-09T13:29:55;24.00;99.90
16958;DHT22;8595;52.542;11.974;2022-09-09T13:32:23;24.00;99.90
16958;DHT22;8595;52.542;11.974;2022-09-09T13:34:52;23.80;99.90
16958;DHT22;8595;52.542;11.974;2022-09-09T13:37:24;23.60;99.90
16958;DHT22;8595;52.542;11.974;2022-09-09T13:39:54;23.50;99.90
16958;DHT22;8595;52.542;11.974;2022-09-09T13:42:26;23.60;99.90
16958;DHT22;8595;52.542;11.974;2022-09-09T13:44:55;23.70;99.90
16958;DHT22;8595;52.542;11.974;2022-09-09T13:47:28;23.60;99.90
16958;DHT22;8595;52.542;11.974;2022-09-09T13:49:56;23.60;99.90
16958;DHT22;8595;52.542;11.974;2022-09-09T13:52:23;23.60;99.90
16958;DHT22;8595;52.542;11.974;2022-09-09T13:54:52;23.50;99.90
16958;DHT22;8595;52.542;11.974;2022-09-09T13:57:21;23.00;99.90
16958;DHT22;8595;52.542;11.974;2022-09-09T13:59:48;22.70;99.90
16958;DHT22;8595;52.542;11.974;2022-09-09T14:02:17;22.30;99.90
16958;DHT22;8595;52.542;11.974;2022-09-09T14:04:43;22.20;99.90
16958;DHT22;8595;52.542;11.974;2022-09-09T14:07:11;22.00;99.90
16958;DHT22;8595;52.542;11.974;2022-09-09T14:09:38;22.00;99.90
16958;DHT22;8595;52.542;11.974;2022-09-09T14:12:08;22.10;99.90
16958;DHT22;8595;52.542;11.974;2022-09-09T14:14:35;22.10;99.90
16958;DHT22;8595;52.542;11.974;2022-09-09T14:17:01;22.10;99.90
16958;DHT22;8595;52.542;11.974;2022-09-09T14:19:30;22.10;99.90
16958;DHT22;8595;52.542;11.974;2022-09-09T14:21:57;22.10;99.90
16958;DHT22;8595;52.542;11.974;2022-09-09T14:24:24;21.80;99.90
16958;DHT22;8595;52.542;11.974;2022-09-09T14:26:51;21.80;99.90
16958;DHT22;8595;52.542;11.974;2022-09-09T14:29:18;21.80;99.90
16958;DHT22;8595;52.542;11.974;2022-09-09T14:31:45;21.60;99.90
16958;DHT22;8595;52.542;11.974;2022-09-09T14:34:12;21.60;99.90
16958;DHT22;8595;52.542;11.974;2022-09-09T14:36:40;21.50;99.90
16958;DHT22;8595;52.542;11.974;2022-09-09T14:39:07;21.50;99.90
16958;DHT22;8595;52.542;11.974;2022-09-09T14:41:34;21.60;99.90
16958;DHT22;8595;52.542;11.974;2022-09-09T14:44:01;21.60;99.90
16958;DHT22;8595;52.542;11.974;2022-09-09T14:46:27;21.60;99.90
16958;DHT22;8595;52.542;11.974;2022-09-09T14:48:55;21.70;99.90
16958;DHT22;8595;52.542;11.974;2022-09-09T14:51:23;22.20;99.90
16958;DHT22;8595;52.542;11.974;2022-09-09T14:53:53;23.00;99.90
16958;DHT22;8595;52.542;11.974;2022-09-09T14:56:22;23.50;99.90
16958;DHT22;8595;52.542;11.974;2022-09-09T14:58:49;23.90;99.90
16958;DHT22;8595;52.542;11.974;2022-09-09T15:01:18;24.00;99.90
16958;DHT22;8595;52.542;11.974;2022-09-09T15:03:50;23.90;99.90
16958;DHT22;8595;52.542;11.974;2022-09-09T15:06:19;24.20;99.90
16958;DHT22;8595;52.542;11.974;2022-09-09T15:08:47;25.10;99.90
16958;DHT22;8595;52.542;11.974;2022-09-09T15:11:15;26.10;99.90
16958;DHT22;8595;52.542;11.974;2022-09-09T15:13:43;26.40;99.90
16958;DHT22;8595;52.542;11.974;2022-09-09T15:16:11;26.40;99.90
16958;DHT22;8595;52.542;11.974;2022-09-09T15:18:38;27.10;99.90
16958;DHT22;8595;52.542;11.974;2022-09-09T15:21:08;27.70;99.90
16958;DHT22;8595;52.542;11.974;2022-09-09T15:23:35;27.50;99.90
16958;DHT22;8595;52.542;11.974;2022-09-09T15:26:03;27.30;99.90
16958;DHT22;8595;52.542;11.974;2022-09-09T15:28:31;26.90;99.90
16958;DHT22;8595;52.542;11.974;2022-09-09T15:30:59;26.90;99.90
16958;DHT22;8595;52.542;11.974;2022-09-09T15:33:31;27.20;99.90
16958;DHT22;8595;52.542;11.974;2022-09-09T15:35:58;27.40;99.90
16958;DHT22;8595;52.542;11.974;2022-09-09T15:38:25;27.50;99.90
16958;DHT22;8595;52.542;11.974;2022-09-09T15:40:55;27.50;99.90
16958;DHT22;8595;52.542;11.974;2022-09-09T15:43:22;27.70;99.90
16958;DHT22;8595;52.542;11.974;2022-09-09T15:45:54;27.80;99.90
16958;DHT22;8595;52.542;11.974;2022-09-09T15:48:30;28.20;99.90
16958;DHT22;8595;52.542;11.974;2022-09-09T15:51:01;28.50;99.90
16958;DHT22;8595;52.542;11.974;2022-09-09T15:53:29;28.60;99.90
16958;DHT22;8595;52.542;11.974;2022-09-09T15:55:57;28.90;99.90
16958;DHT22;8595;52.542;11.974;2022-09-09T15:58:25;29.10;99.90